Time;durP1;ratioP1;P1;durP2;ratioP2;P2;SDS_P1;SDS_P2;PMS_P1;PMS_P2;Temp;Humidity;BMP_temperature;BMP_pressure;BME280_temperature;BME280_humidity;BME280_pressure;Samples;Min_cycle;Max_cycle;Signal;HPM_P1;HPM_P2
2021/10/01 00:00:06;;;;;;;2.27;1.70;;;12.30;99.90;;;;;;4995758;28;20188;-69
2021/10/01 00:02:31;;;;;;;3.33;1.90;;;12.30;99.90;;;;;;4997160;28;20214;-69
2021/10/01 00:04:57;;;;;;;9.50;1.43;;;12.30;99.90;;;;;;4996918;28;20901;-69
2021/10/01 00:07:23;;;;;;;1.67;1.50;;;12.30;99.90;;;;;;4996505;28;20644;-69
2021/10/01 00:09:48;;;;;;;5.30;1.73;;;12.20;99.90;;;;;;4996983;28;20227;-68
2021/10/01 00:12:14;;;;;;;4.27;1.83;;;12.20;99.90;;;;;;4997329;28;20176;-70
2021/10/01 00:14:40;;;;;;;1.73;1.63;;;12.20;99.90;;;;;;4996673;28;20168;-69
2021/10/01 00:17:05;;;;;;;3.20;1.47;;;12.20;99.90;;;;;;4995294;28;20613;-70
2021/10/01 00:19:34;;;;;;;3.90;1.63;;;12.20;99.90;;;;;;4994769;28;20213;-70
2021/10/01 00:22:02;;;;;;;3.57;1.70;;;12.20;99.90;;;;;;4987850;28;20499;-69
2021/10/01 00:24:28;;;;;;;1.60;1.50;;;12.20;99.90;;;;;;4977272;28;20821;-70
2021/10/01 00:26:54;;;;;;;3.20;1.50;;;12.20;99.90;;;;;;4977106;28;20503;-69
2021/10/01 00:29:19;;;;;;;5.10;1.73;;;12.20;99.90;;;;;;4996615;28;20490;-69
2021/10/01 00:31:45;;;;;;;2.40;1.30;;;12.10;99.90;;;;;;4997091;28;20178;-69
2021/10/01 00:34:10;;;;;;;3.93;1.90;;;12.10;99.90;;;;;;4995358;28;20443;-70
2021/10/01 00:36:36;;;;;;;4.00;1.50;;;12.10;99.90;;;;;;4996064;28;20176;-70
2021/10/01 00:39:06;;;;;;;3.77;2.20;;;12.10;99.90;;;;;;4995578;28;20215;-69
2021/10/01 00:41:32;;;;;;;3.13;1.37;;;12.10;99.90;;;;;;4996571;28;20251;-69
2021/10/01 00:43:58;;;;;;;2.60;1.70;;;12.10;99.90;;;;;;4996119;28;20423;-70
2021/10/01 00:46:24;;;;;;;2.17;1.50;;;12.10;99.90;;;;;;4996366;28;20416;-69
2021/10/01 00:48:50;;;;;;;2.63;1.30;;;12.10;99.90;;;;;;4995965;28;20474;-69
2021/10/01 00:51:16;;;;;;;1.57;1.40;;;12.10;99.90;;;;;;4996602;28;20510;-68
2021/10/01 00:53:43;;;;;;;1.90;1.20;;;12.10;99.90;;;;;;4995818;28;20184;-69
2021/10/01 00:56:09;;;;;;;3.30;1.57;;;12.00;99.90;;;;;;4995908;28;20427;-69
2021/10/01 00:58:34;;;;;;;3.57;1.33;;;12.00;99.90;;;;;;4995980;28;20431;-68
2021/10/01 01:03:49;;;;;;;2.57;1.20;;;12.00;99.90;;;;;;4995943;28;20475;-68
2021/10/01 01:06:27;;;;;;;2.10;1.70;;;12.00;99.90;;;;;;4997688;28;20478;-67
2021/10/01 01:09:10;;;;;;;4.00;1.23;;;12.00;99.90;;;;;;5017895;28;20467;-69
2021/10/01 01:12:01;;;;;;;2.47;1.10;;;11.90;99.90;;;;;;4999437;28;20407;-70
2021/10/01 01:14:37;;;;;;;2.27;1.40;;;12.00;99.90;;;;;;4996475;28;20439;-68
2021/10/01 01:17:06;;;;;;;2.30;1.50;;;12.00;99.90;;;;;;4995817;28;20402;-70
2021/10/01 01:20:02;;;;;;;5.43;1.90;;;12.00;99.90;;;;;;4996040;28;20414;-68
2021/10/01 01:22:37;;;;;;;3.63;1.40;;;12.00;99.90;;;;;;4995914;28;20395;-69
2021/10/01 01:25:27;;;;;;;4.13;1.87;;;11.90;99.90;;;;;;4995229;28;20983;-70
2021/10/01 01:28:13;;;;;;;1.50;1.03;;;11.90;99.90;;;;;;4995288;28;20428;-68
2021/10/01 01:30:45;;;;;;;6.60;1.60;;;11.90;99.90;;;;;;4995991;28;20442;-69
2021/10/01 01:33:15;;;;;;;3.67;1.80;;;11.90;99.90;;;;;;4996471;28;20438;-69
2021/10/01 01:35:41;;;;;;;2.33;1.40;;;11.90;99.90;;;;;;4994410;28;20419;-69
2021/10/01 01:38:21;;;;;;;1.90;1.30;;;11.90;99.90;;;;;;4995667;28;20424;-69
2021/10/01 01:40:51;;;;;;;1.60;1.50;;;11.90;99.90;;;;;;4995982;28;20522;-69
2021/10/01 01:43:16;;;;;;;2.30;1.23;;;11.90;99.90;;;;;;4996425;28;20412;-68
2021/10/01 01:45:44;;;;;;;3.93;1.33;;;11.90;99.90;;;;;;4996429;28;20407;-70
2021/10/01 01:48:11;;;;;;;2.00;1.10;;;11.90;99.90;;;;;;4996442;28;20260;-69
2021/10/01 01:50:38;;;;;;;5.60;1.80;;;11.90;99.90;;;;;;4997198;28;20574;-67
2021/10/01 01:53:05;;;;;;;2.30;1.40;;;11.90;99.90;;;;;;5003649;28;20423;-68
2021/10/01 01:55:33;;;;;;;2.63;1.50;;;11.90;99.90;;;;;;5016097;28;20509;-67
2021/10/01 01:57:59;;;;;;;1.53;1.20;;;11.90;99.90;;;;;;4999792;28;20808;-69
2021/10/01 02:00:25;;;;;;;3.13;1.60;;;11.90;99.90;;;;;;5010064;28;20562;-69
2021/10/01 02:02:53;;;;;;;5.10;1.37;;;11.90;99.90;;;;;;5018581;28;20431;-70
2021/10/01 02:05:20;;;;;;;3.67;1.50;;;11.90;99.90;;;;;;5018486;28;20431;-70
2021/10/01 02:07:47;;;;;;;4.20;1.40;;;11.90;99.90;;;;;;5014774;28;20458;-70
2021/10/01 02:10:14;;;;;;;3.23;1.50;;;11.90;99.90;;;;;;4995637;28;20470;-69
2021/10/01 02:12:42;;;;;;;1.53;1.20;;;11.80;99.90;;;;;;4995777;28;20415;-69
2021/10/01 02:15:10;;;;;;;1.80;1.17;;;11.80;99.90;;;;;;4995006;28;20403;-69
2021/10/01 02:17:39;;;;;;;3.83;1.60;;;11.80;99.90;;;;;;4994732;28;20423;-68
2021/10/01 02:20:06;;;;;;;2.57;1.10;;;11.90;99.90;;;;;;4975707;28;20847;-69
2021/10/01 02:22:33;;;;;;;2.60;1.13;;;11.90;99.90;;;;;;4975838;28;20431;-69
2021/10/01 02:24:59;;;;;;;2.80;1.40;;;11.90;99.90;;;;;;4975319;28;20495;-69
2021/10/01 02:27:40;;;;;;;1.20;1.10;;;11.90;99.90;;;;;;4975027;28;20492;-69
2021/10/01 02:30:11;;;;;;;3.57;1.47;;;11.90;99.90;;;;;;4991902;28;20235;-69
2021/10/01 02:33:01;;;;;;;2.10;1.20;;;11.80;99.90;;;;;;4995002;28;20419;-69
2021/10/01 02:35:27;;;;;;;3.47;1.13;;;11.80;99.90;;;;;;4994958;28;20407;-68
2021/10/01 02:37:53;;;;;;;3.60;1.40;;;11.80;99.90;;;;;;4994556;28;20928;-69
2021/10/01 02:40:20;;;;;;;3.50;1.50;;;11.80;99.90;;;;;;4994183;28;20603;-69
2021/10/01 02:42:46;;;;;;;3.83;1.30;;;11.80;99.90;;;;;;4994658;28;20283;-69
2021/10/01 02:45:12;;;;;;;4.90;1.50;;;11.80;99.90;;;;;;4995221;28;20451;-69
2021/10/01 02:47:40;;;;;;;1.47;1.30;;;11.80;99.90;;;;;;4993984;28;20563;-69
2021/10/01 02:50:12;;;;;;;2.60;1.47;;;11.80;99.90;;;;;;4994474;28;20471;-69
2021/10/01 02:52:55;;;;;;;2.47;1.30;;;11.80;99.90;;;;;;4994383;28;20419;-68
2021/10/01 02:55:44;;;;;;;2.97;1.50;;;11.80;99.90;;;;;;4994882;28;20410;-69
2021/10/01 02:58:32;;;;;;;1.80;1.00;;;11.80;99.90;;;;;;4992373;28;20782;-70
2021/10/01 03:01:00;;;;;;;2.93;1.73;;;11.80;99.90;;;;;;4989432;28;20430;-70
2021/10/01 03:03:30;;;;;;;2.60;1.43;;;11.80;99.90;;;;;;4998170;28;20418;-70
2021/10/01 03:05:59;;;;;;;5.67;1.30;;;11.70;99.90;;;;;;4998044;28;20403;-69
2021/10/01 03:08:30;;;;;;;2.73;1.10;;;11.70;99.90;;;;;;4999536;28;20439;-70
2021/10/01 03:10:57;;;;;;;2.80;1.20;;;11.70;99.90;;;;;;4999317;28;20435;-70
2021/10/01 03:13:24;;;;;;;1.97;1.17;;;11.80;99.90;;;;;;4998076;28;20431;-70
2021/10/01 03:15:51;;;;;;;3.23;1.33;;;11.70;99.90;;;;;;4997665;28;20408;-70
2021/10/01 03:18:18;;;;;;;2.90;1.40;;;11.70;99.90;;;;;;4997559;28;20423;-70
2021/10/01 03:20:44;;;;;;;4.22;1.60;;;11.70;99.90;;;;;;4997266;28;20870;-70
2021/10/01 03:23:12;;;;;;;3.60;1.33;;;11.70;99.90;;;;;;4997783;28;20179;-69
2021/10/01 03:25:38;;;;;;;2.20;1.70;;;11.80;99.90;;;;;;4997728;28;20861;-70
2021/10/01 03:28:05;;;;;;;2.00;1.40;;;11.70;99.90;;;;;;4998146;28;20431;-69
2021/10/01 03:30:31;;;;;;;4.97;1.60;;;11.70;99.90;;;;;;4997667;28;20566;-69
2021/10/01 03:32:57;;;;;;;2.73;1.43;;;11.70;99.90;;;;;;4997284;28;20513;-70
2021/10/01 03:35:22;;;;;;;1.50;1.20;;;11.70;99.90;;;;;;4997927;28;20675;-70
2021/10/01 03:37:48;;;;;;;2.20;1.60;;;11.70;99.90;;;;;;4996364;28;20204;-71
2021/10/01 03:40:15;;;;;;;2.63;1.57;;;11.70;99.90;;;;;;4996789;28;20589;-71
2021/10/01 03:42:41;;;;;;;2.50;1.50;;;11.70;99.90;;;;;;4997713;28;20200;-69
2021/10/01 03:45:10;;;;;;;2.20;1.40;;;11.70;99.90;;;;;;4996431;28;20419;-70
2021/10/01 03:47:36;;;;;;;2.50;1.43;;;11.70;99.90;;;;;;4997049;28;20482;-69
2021/10/01 03:50:03;;;;;;;1.30;1.20;;;11.70;99.90;;;;;;5017473;28;20958;-69
2021/10/01 03:52:29;;;;;;;1.63;1.50;;;11.60;99.90;;;;;;5008030;28;20176;-69
2021/10/01 03:54:55;;;;;;;2.30;1.80;;;11.60;99.90;;;;;;4998148;28;20439;-70
2021/10/01 03:57:20;;;;;;;2.03;1.57;;;11.60;99.90;;;;;;4990586;28;20990;-69
2021/10/01 03:59:46;;;;;;;2.10;1.63;;;11.60;99.90;;;;;;4988760;28;20200;-70
2021/10/01 04:02:12;;;;;;;2.63;1.77;;;11.60;99.90;;;;;;4998560;28;20180;-70
2021/10/01 04:04:39;;;;;;;2.20;1.20;;;11.50;99.90;;;;;;4998010;28;20474;-70
2021/10/01 04:07:04;;;;;;;1.90;1.43;;;11.50;99.90;;;;;;4986760;28;20199;-71
2021/10/01 04:09:30;;;;;;;2.13;1.40;;;11.50;99.90;;;;;;4996001;28;20916;-68
2021/10/01 04:11:57;;;;;;;4.07;1.40;;;11.50;99.90;;;;;;4996471;28;20173;-69
2021/10/01 04:14:23;;;;;;;2.43;1.37;;;11.40;99.90;;;;;;4997020;28;20176;-69
2021/10/01 04:16:49;;;;;;;2.13;1.60;;;11.40;99.90;;;;;;4988489;28;20454;-70
2021/10/01 04:19:15;;;;;;;2.50;1.50;;;11.40;99.90;;;;;;4983859;28;20497;-69
2021/10/01 04:21:41;;;;;;;2.17;1.60;;;11.40;99.90;;;;;;4977281;28;20507;-70
2021/10/01 04:24:06;;;;;;;2.87;1.30;;;11.40;99.90;;;;;;4977553;28;20185;-69
2021/10/01 04:26:32;;;;;;;2.60;1.50;;;11.40;99.90;;;;;;4982817;28;20239;-70
2021/10/01 04:28:58;;;;;;;2.57;1.30;;;11.40;99.90;;;;;;4985575;28;20257;-69
2021/10/01 04:31:24;;;;;;;3.00;1.20;;;11.40;99.90;;;;;;4986877;28;20436;-68
2021/10/01 04:33:49;;;;;;;2.53;1.30;;;11.40;99.90;;;;;;4987683;28;20184;-69
2021/10/01 04:36:15;;;;;;;2.57;1.50;;;11.40;99.90;;;;;;4976208;28;20768;-70
2021/10/01 04:38:41;;;;;;;4.17;1.60;;;11.40;99.90;;;;;;4984447;28;20841;-71
2021/10/01 04:41:07;;;;;;;2.80;1.60;;;11.40;99.90;;;;;;4985595;28;20262;-71
2021/10/01 04:43:32;;;;;;;1.70;1.30;;;11.40;99.90;;;;;;4987325;28;20463;-69
2021/10/01 04:45:58;;;;;;;1.50;1.40;;;11.40;99.90;;;;;;4992549;28;20475;-69
2021/10/01 04:48:24;;;;;;;4.43;1.77;;;11.30;99.90;;;;;;4995521;28;20247;-70
2021/10/01 04:50:50;;;;;;;3.00;1.57;;;11.40;99.90;;;;;;4994779;28;20744;-69
2021/10/01 04:53:15;;;;;;;1.53;1.37;;;11.40;99.90;;;;;;4994964;28;20535;-71
2021/10/01 04:55:46;;;;;;;4.50;1.83;;;11.40;99.90;;;;;;4998140;28;20215;-71
2021/10/01 04:58:12;;;;;;;2.63;1.17;;;11.30;99.90;;;;;;4998374;28;20192;-69
2021/10/01 05:00:38;;;;;;;3.00;1.90;;;11.40;99.90;;;;;;4995598;28;20486;-70
2021/10/01 05:03:04;;;;;;;1.80;1.60;;;11.30;99.90;;;;;;4995418;28;20514;-71
2021/10/01 05:05:29;;;;;;;2.27;1.40;;;11.30;99.90;;;;;;4995488;28;20415;-72
2021/10/01 05:07:55;;;;;;;3.60;1.87;;;11.30;99.90;;;;;;4995730;28;20220;-71
2021/10/01 05:10:21;;;;;;;4.90;1.57;;;11.30;99.90;;;;;;4988860;28;20259;-68
2021/10/01 05:12:46;;;;;;;1.93;1.10;;;11.30;99.90;;;;;;4991903;28;20200;-71
2021/10/01 05:15:13;;;;;;;4.00;1.50;;;11.30;99.90;;;;;;5014412;28;20208;-68
2021/10/01 05:17:39;;;;;;;3.20;1.50;;;11.40;99.90;;;;;;5006618;28;20338;-70
2021/10/01 05:20:08;;;;;;;1.60;1.40;;;11.30;99.90;;;;;;5004180;28;20444;-71
2021/10/01 05:22:34;;;;;;;3.37;1.83;;;11.30;99.90;;;;;;5015670;28;20489;-69
2021/10/01 05:25:01;;;;;;;5.17;2.00;;;11.30;99.90;;;;;;5012733;28;20442;-69
2021/10/01 05:27:27;;;;;;;3.20;1.67;;;11.30;99.90;;;;;;4993371;28;20207;-69
2021/10/01 05:29:52;;;;;;;2.87;1.40;;;11.30;99.90;;;;;;4998071;28;20478;-68
2021/10/01 05:32:18;;;;;;;3.20;1.63;;;11.30;99.90;;;;;;5005880;28;20653;-69
2021/10/01 05:34:43;;;;;;;4.47;2.20;;;11.30;99.90;;;;;;4997284;28;20211;-69
2021/10/01 05:37:09;;;;;;;2.70;1.40;;;11.30;99.90;;;;;;5006887;28;20214;-69
2021/10/01 05:39:35;;;;;;;2.97;1.40;;;11.30;99.90;;;;;;5014084;28;20230;-69
2021/10/01 05:42:00;;;;;;;5.83;2.00;;;11.30;99.90;;;;;;5013422;28;20234;-69
2021/10/01 05:44:26;;;;;;;3.53;2.00;;;11.30;99.90;;;;;;5006208;28;20537;-69
2021/10/01 05:46:52;;;;;;;3.00;1.40;;;11.30;99.90;;;;;;4998529;28;20200;-69
2021/10/01 05:49:21;;;;;;;1.60;1.33;;;11.20;99.90;;;;;;4994536;28;20239;-70
2021/10/01 05:51:53;;;;;;;3.60;1.77;;;11.30;99.90;;;;;;4995313;28;20546;-69
2021/10/01 05:54:21;;;;;;;2.97;1.70;;;11.30;99.90;;;;;;4992785;28;20438;-71
2021/10/01 05:56:52;;;;;;;3.47;1.30;;;11.30;99.90;;;;;;4993523;28;20473;-69
2021/10/01 05:59:19;;;;;;;5.73;1.97;;;11.30;99.90;;;;;;4992262;28;20451;-70
2021/10/01 06:01:45;;;;;;;5.50;2.00;;;11.30;99.90;;;;;;4997654;28;20624;-71
2021/10/01 06:04:11;;;;;;;1.70;1.60;;;11.30;99.90;;;;;;5012110;28;20449;-70
2021/10/01 06:06:36;;;;;;;3.60;2.00;;;11.20;99.90;;;;;;4995050;28;20467;-69
2021/10/01 06:09:03;;;;;;;1.40;1.30;;;11.30;99.90;;;;;;4992752;28;20204;-68
2021/10/01 06:11:29;;;;;;;3.77;1.77;;;11.30;99.90;;;;;;4991698;28;20208;-69
2021/10/01 06:13:54;;;;;;;1.83;1.27;;;11.30;99.90;;;;;;4992818;28;20442;-70
2021/10/01 06:16:20;;;;;;;1.77;1.30;;;11.40;99.90;;;;;;4991408;28;20733;-69
2021/10/01 06:18:46;;;;;;;4.10;2.13;;;11.40;99.90;;;;;;4993023;28;20188;-69
2021/10/01 06:21:11;;;;;;;3.00;1.80;;;11.40;99.90;;;;;;4992191;28;20841;-69
2021/10/01 06:23:37;;;;;;;2.50;1.23;;;11.40;99.90;;;;;;4992399;28;20243;-69
2021/10/01 06:26:04;;;;;;;3.67;2.00;;;11.50;99.90;;;;;;4990613;28;20196;-70
2021/10/01 06:28:29;;;;;;;1.37;1.27;;;11.50;99.90;;;;;;4992283;28;20228;-69
2021/10/01 06:30:58;;;;;;;3.70;1.83;;;11.50;99.90;;;;;;4992605;28;20502;-69
2021/10/01 06:33:24;;;;;;;2.23;1.40;;;11.60;99.90;;;;;;4992145;28;20196;-69
2021/10/01 06:35:50;;;;;;;4.33;1.90;;;11.60;99.90;;;;;;4998732;28;20811;-70
2021/10/01 06:38:16;;;;;;;4.53;1.93;;;11.60;99.90;;;;;;4995127;28;20554;-70
2021/10/01 06:40:42;;;;;;;3.53;1.60;;;11.70;99.90;;;;;;4993013;28;20484;-69
2021/10/01 06:43:09;;;;;;;2.87;1.40;;;11.70;99.90;;;;;;4990008;28;20248;-68
2021/10/01 06:45:36;;;;;;;2.33;1.60;;;11.70;99.90;;;;;;4992739;28;20450;-70
2021/10/01 06:51:13;;;;;;;1.93;1.23;;;11.80;99.90;;;;;;4992664;28;20467;-68
2021/10/01 08:20:25;;;;;;;1.73;1.17;;;13.60;99.90;;;;;;4998307;28;20431;-69
2021/10/01 08:22:51;;;;;;;3.27;1.30;;;13.70;99.90;;;;;;4996288;28;20415;-69
2021/10/01 08:25:17;;;;;;;1.93;1.57;;;13.70;99.90;;;;;;4998231;28;20195;-69
2021/10/01 08:27:42;;;;;;;4.00;1.63;;;13.80;99.90;;;;;;5000228;28;20188;-70
2021/10/01 08:30:09;;;;;;;2.50;1.20;;;13.90;99.90;;;;;;5002989;28;20204;-70
2021/10/01 08:32:36;;;;;;;1.50;1.40;;;14.00;99.90;;;;;;5002999;28;20176;-72
2021/10/01 08:35:02;;;;;;;1.43;1.20;;;14.00;99.90;;;;;;5007648;28;20412;-70
2021/10/01 08:37:28;;;;;;;2.60;1.37;;;14.10;99.90;;;;;;5011470;28;21007;-70
2021/10/01 08:39:53;;;;;;;2.37;1.50;;;14.20;99.90;;;;;;5009938;28;20450;-69
2021/10/01 08:42:20;;;;;;;4.20;1.10;;;14.20;99.90;;;;;;5007315;28;20183;-69
2021/10/01 08:44:45;;;;;;;4.07;1.60;;;14.30;99.90;;;;;;5015217;28;20232;-70
2021/10/01 08:47:12;;;;;;;2.33;1.13;;;14.40;99.90;;;;;;5017300;28;20460;-71
2021/10/01 08:49:39;;;;;;;1.93;1.37;;;14.40;99.90;;;;;;4998874;28;20242;-69
2021/10/01 08:52:07;;;;;;;4.23;1.53;;;14.40;99.90;;;;;;4998774;28;20424;-70
2021/10/01 08:54:33;;;;;;;1.90;1.53;;;14.50;99.90;;;;;;4997886;28;20793;-69
2021/10/01 08:56:58;;;;;;;2.27;1.37;;;14.60;99.90;;;;;;4996108;28;20422;-71
2021/10/01 08:59:24;;;;;;;4.23;1.30;;;14.70;99.90;;;;;;4996614;28;20203;-68
2021/10/01 09:01:49;;;;;;;3.80;1.57;;;14.80;99.90;;;;;;4996903;28;20179;-69
2021/10/01 09:04:16;;;;;;;2.17;1.50;;;14.80;99.50;;;;;;4997095;28;20277;-70
2021/10/01 09:06:42;;;;;;;2.00;1.37;;;14.90;99.50;;;;;;4997014;28;20183;-70
2021/10/01 09:09:09;;;;;;;2.20;1.30;;;14.90;99.40;;;;;;4998088;28;20463;-71
2021/10/01 09:11:38;;;;;;;1.80;1.33;;;15.00;99.60;;;;;;4997651;28;20561;-69
2021/10/01 09:14:10;;;;;;;1.70;1.10;;;15.10;99.50;;;;;;4996057;28;20420;-70
2021/10/01 09:16:37;;;;;;;1.40;1.10;;;15.10;99.50;;;;;;4996384;28;20447;-69
2021/10/01 09:19:05;;;;;;;2.13;1.73;;;15.10;99.10;;;;;;4996853;28;20445;-70
2021/10/01 09:21:46;;;;;;;2.27;1.20;;;15.20;99.00;;;;;;4995170;28;20806;-69
2021/10/01 09:24:15;;;;;;;2.00;1.17;;;15.30;98.70;;;;;;4995897;28;20400;-70
2021/10/01 09:26:55;;;;;;;3.00;1.13;;;15.30;98.30;;;;;;4994934;28;20568;-70
2021/10/01 09:29:31;;;;;;;1.20;1.00;;;15.40;98.50;;;;;;4998324;28;20459;-69
2021/10/01 09:31:58;;;;;;;1.97;1.30;;;15.40;98.30;;;;;;4995975;28;20423;-70
2021/10/01 09:34:24;;;;;;;2.90;1.40;;;15.40;98.10;;;;;;4995928;28;20485;-70
2021/10/01 09:37:10;;;;;;;2.40;1.47;;;15.50;98.20;;;;;;4995442;28;20423;-70
2021/10/01 09:39:51;;;;;;;1.17;1.00;;;15.60;98.10;;;;;;4998018;28;20160;-70
2021/10/01 09:42:24;;;;;;;3.53;1.10;;;15.70;98.20;;;;;;4997952;28;20418;-70
2021/10/01 09:44:56;;;;;;;2.47;1.73;;;15.80;98.00;;;;;;4995787;28;20408;-69
2021/10/01 09:47:28;;;;;;;3.20;1.30;;;15.90;97.80;;;;;;4995529;28;20491;-69
2021/10/01 09:49:59;;;;;;;2.90;1.70;;;16.00;97.70;;;;;;4994275;28;20520;-70
2021/10/01 09:52:39;;;;;;;1.77;1.33;;;16.00;97.70;;;;;;4996173;28;20443;-69
2021/10/01 09:55:06;;;;;;;1.53;1.20;;;16.00;97.50;;;;;;4995645;28;20399;-70
2021/10/01 09:57:32;;;;;;;2.00;1.13;;;16.10;97.70;;;;;;4995194;28;20438;-70
2021/10/01 09:59:57;;;;;;;3.50;1.50;;;16.20;97.50;;;;;;4995399;28;20411;-70
2021/10/01 10:02:23;;;;;;;3.60;1.17;;;16.20;97.40;;;;;;4995558;28;20541;-70
2021/10/01 10:04:54;;;;;;;3.25;1.60;;;16.30;97.40;;;;;;4995379;28;20420;-70
2021/10/01 10:07:27;;;;;;;3.50;1.57;;;16.40;97.40;;;;;;4994917;28;20662;-72
2021/10/01 10:09:54;;;;;;;3.33;1.30;;;16.40;97.30;;;;;;4995441;28;21014;-70
2021/10/01 10:12:26;;;;;;;2.63;1.15;;;16.50;97.00;;;;;;4998074;28;20420;-69
2021/10/01 10:14:54;;;;;;;2.90;1.40;;;16.60;97.10;;;;;;5001145;28;20185;-69
2021/10/01 10:17:21;;;;;;;3.00;1.40;;;16.70;97.00;;;;;;5001146;28;20490;-69
2021/10/01 10:19:48;;;;;;;5.30;1.00;;;16.70;96.80;;;;;;4999490;28;20438;-69
2021/10/01 10:22:13;;;;;;;3.30;1.50;;;16.80;96.00;;;;;;4995997;28;20415;-69
2021/10/01 10:24:39;;;;;;;1.90;1.40;;;16.80;95.70;;;;;;4996681;28;20556;-71
2021/10/01 10:27:05;;;;;;;3.10;1.10;;;16.80;95.40;;;;;;5000633;28;20184;-69
2021/10/01 10:29:31;;;;;;;1.93;1.10;;;16.80;95.60;;;;;;4999421;28;20267;-69
2021/10/01 10:31:56;;;;;;;2.03;1.17;;;16.90;95.70;;;;;;4997914;28;20187;-70
2021/10/01 10:34:29;;;;;;;3.00;1.30;;;16.90;95.40;;;;;;4996299;28;20419;-69
2021/10/01 10:37:02;;;;;;;2.73;1.30;;;17.00;95.60;;;;;;4995348;28;20530;-70
2021/10/01 10:39:34;;;;;;;3.30;1.53;;;17.10;95.40;;;;;;4995023;28;20443;-69
2021/10/01 10:42:02;;;;;;;3.60;1.93;;;17.20;95.10;;;;;;4995634;28;20403;-69
2021/10/01 10:44:40;;;;;;;2.00;1.10;;;17.30;94.70;;;;;;4995744;28;20482;-69
2021/10/01 10:47:06;;;;;;;2.40;1.57;;;17.30;94.70;;;;;;4993350;28;20420;-70
2021/10/01 10:49:31;;;;;;;2.83;1.27;;;17.20;94.70;;;;;;4994714;28;20469;-69
2021/10/01 10:52:02;;;;;;;2.20;1.47;;;17.20;94.80;;;;;;4995203;28;20173;-70
2021/10/01 10:54:37;;;;;;;2.47;1.30;;;17.20;94.90;;;;;;4994618;28;20227;-70
2021/10/01 10:57:21;;;;;;;1.77;1.10;;;17.30;94.90;;;;;;4994648;28;20947;-69
2021/10/01 10:59:48;;;;;;;2.93;1.30;;;17.50;95.00;;;;;;4994624;28;20443;-69
2021/10/01 11:02:29;;;;;;;3.90;1.60;;;17.50;94.60;;;;;;4995423;28;20450;-70
2021/10/01 11:05:17;;;;;;;1.43;1.10;;;17.60;94.70;;;;;;4994358;28;20454;-70
2021/10/01 11:07:51;;;;;;;1.30;1.10;;;17.60;94.20;;;;;;4994807;28;20427;-69
2021/10/01 11:10:36;;;;;;;1.60;1.23;;;17.50;94.10;;;;;;4994679;28;20494;-69
2021/10/01 11:13:23;;;;;;;1.30;1.10;;;17.40;93.90;;;;;;4995020;28;20422;-71
2021/10/01 11:16:17;;;;;;;3.17;1.20;;;17.50;94.30;;;;;;4994401;28;20443;-70
2021/10/01 11:18:45;;;;;;;1.20;1.10;;;17.50;94.10;;;;;;4994783;28;20423;-69
2021/10/01 11:21:26;;;;;;;1.53;1.27;;;17.70;94.10;;;;;;4996926;28;20404;-68
2021/10/01 11:24:08;;;;;;;2.20;1.27;;;17.80;93.70;;;;;;5001077;28;20395;-69
2021/10/01 11:26:38;;;;;;;2.43;1.33;;;17.80;93.60;;;;;;5001541;28;20419;-70
2021/10/01 11:29:18;;;;;;;3.53;1.37;;;17.90;93.50;;;;;;5000421;28;20451;-69
2021/10/01 11:31:44;;;;;;;3.07;1.30;;;17.80;93.40;;;;;;5000968;28;20748;-70
2021/10/01 11:34:09;;;;;;;1.90;1.30;;;17.90;93.60;;;;;;5012067;28;20429;-70
2021/10/01 11:36:39;;;;;;;1.77;0.97;;;17.70;93.60;;;;;;5012003;28;20215;-70
2021/10/01 11:39:11;;;;;;;1.37;1.20;;;17.60;93.80;;;;;;5012282;28;20226;-71
2021/10/01 11:41:45;;;;;;;1.73;1.23;;;17.60;93.60;;;;;;5011613;28;20430;-69
2021/10/01 11:44:13;;;;;;;1.30;1.20;;;17.60;93.80;;;;;;5007938;28;20409;-70
2021/10/01 11:46:44;;;;;;;1.47;1.10;;;17.50;93.70;;;;;;4998411;28;20443;-69
2021/10/01 11:49:27;;;;;;;3.03;1.40;;;17.50;94.00;;;;;;4999066;28;20493;-69
2021/10/01 11:52:01;;;;;;;14.27;2.13;;;17.40;93.80;;;;;;4999716;28;20415;-70
2021/10/01 11:54:26;;;;;;;2.00;1.17;;;17.30;93.70;;;;;;4998746;28;20427;-70
2021/10/01 11:56:59;;;;;;;4.50;1.20;;;17.30;93.60;;;;;;5007871;28;20407;-70
2021/10/01 11:59:45;;;;;;;2.00;1.23;;;17.30;93.50;;;;;;5014000;28;20180;-69
2021/10/01 12:02:11;;;;;;;2.73;1.40;;;17.30;93.50;;;;;;4999881;28;20403;-71
2021/10/01 12:04:36;;;;;;;2.07;1.60;;;17.30;93.60;;;;;;5017480;28;20435;-69
2021/10/01 12:07:05;;;;;;;3.13;1.20;;;17.20;93.70;;;;;;5019547;28;20263;-71
2021/10/01 12:09:30;;;;;;;1.83;1.10;;;17.30;93.60;;;;;;5005036;28;20208;-71
2021/10/01 12:12:05;;;;;;;3.57;1.83;;;17.20;93.40;;;;;;4999631;28;20422;-69
2021/10/01 12:14:30;;;;;;;3.10;1.57;;;17.10;93.90;;;;;;4999202;28;20582;-70
2021/10/01 12:17:07;;;;;;;1.50;1.10;;;17.20;94.10;;;;;;4997306;28;20427;-69
2021/10/01 12:19:34;;;;;;;1.40;1.20;;;17.10;94.30;;;;;;4997738;28;20188;-70
2021/10/01 12:22:07;;;;;;;3.23;1.13;;;17.10;93.90;;;;;;4997129;28;20810;-70
2021/10/01 12:24:51;;;;;;;2.13;1.50;;;17.20;94.10;;;;;;4998500;28;20431;-70
2021/10/01 12:27:19;;;;;;;2.20;1.20;;;17.20;94.40;;;;;;4997584;28;20538;-69
2021/10/01 12:29:51;;;;;;;2.17;1.13;;;17.20;94.20;;;;;;4998153;28;20471;-71
2021/10/01 12:32:22;;;;;;;4.30;1.27;;;17.20;94.30;;;;;;4997721;28;20422;-69
2021/10/01 12:34:56;;;;;;;4.00;1.27;;;17.20;94.50;;;;;;4998308;28;20411;-69
2021/10/01 12:37:23;;;;;;;1.90;1.10;;;17.30;95.00;;;;;;5000249;28;20812;-69
2021/10/01 12:39:52;;;;;;;2.83;1.13;;;17.30;94.70;;;;;;4997749;28;20934;-69
2021/10/01 12:42:38;;;;;;;1.57;1.37;;;17.30;95.00;;;;;;4996985;28;20423;-69
2021/10/01 12:45:12;;;;;;;3.63;1.83;;;17.40;94.70;;;;;;4997093;28;20569;-69
2021/10/01 12:47:42;;;;;;;1.50;1.40;;;17.40;94.20;;;;;;4996530;28;20522;-69
2021/10/01 12:50:10;;;;;;;2.00;1.40;;;17.40;94.20;;;;;;4996542;28;20474;-71
2021/10/01 12:52:41;;;;;;;1.73;1.40;;;17.50;94.20;;;;;;4996307;28;20858;-70
2021/10/01 12:55:08;;;;;;;1.37;1.20;;;17.50;94.10;;;;;;4996325;28;20494;-70
2021/10/01 12:57:48;;;;;;;1.40;1.30;;;17.50;94.10;;;;;;4996139;28;20424;-70
2021/10/01 13:00:19;;;;;;;2.20;1.23;;;17.60;94.30;;;;;;4996428;28;20442;-70
2021/10/01 13:02:51;;;;;;;2.27;1.37;;;17.70;94.50;;;;;;4996685;28;20447;-69
2021/10/01 13:05:18;;;;;;;3.93;1.50;;;17.80;94.50;;;;;;4995217;28;20446;-69
2021/10/01 13:08:08;;;;;;;1.90;1.20;;;17.90;94.30;;;;;;4996236;28;20423;-69
2021/10/01 13:10:40;;;;;;;1.80;1.33;;;18.00;94.20;;;;;;4989127;28;20491;-70
2021/10/01 13:13:20;;;;;;;1.87;1.30;;;18.10;93.90;;;;;;4996243;28;20475;-71
2021/10/01 13:15:49;;;;;;;4.25;1.50;;;18.20;93.60;;;;;;4994960;28;20788;-71
2021/10/01 13:18:32;;;;;;;2.30;1.43;;;18.30;93.30;;;;;;4996070;28;20220;-71
2021/10/01 13:21:16;;;;;;;1.50;1.20;;;18.30;93.20;;;;;;4996048;28;20499;-69
2021/10/01 13:23:47;;;;;;;2.80;1.50;;;18.40;92.80;;;;;;4996299;28;20402;-70
2021/10/01 13:26:23;;;;;;;2.00;1.10;;;18.50;93.00;;;;;;4994449;28;20428;-70
2021/10/01 13:29:03;;;;;;;1.77;1.23;;;18.70;92.80;;;;;;4995479;28;20430;-70
2021/10/01 13:31:35;;;;;;;1.27;1.10;;;18.80;92.60;;;;;;4995932;28;20435;-70
2021/10/01 13:34:00;;;;;;;2.30;1.10;;;18.90;92.10;;;;;;4995878;28;20561;-70
2021/10/01 13:36:26;;;;;;;1.20;1.10;;;19.10;91.30;;;;;;4995437;28;20467;-69
2021/10/01 13:38:52;;;;;;;1.30;1.20;;;19.10;91.00;;;;;;4995945;28;20196;-69
2021/10/01 13:41:20;;;;;;;3.13;1.50;;;19.10;90.90;;;;;;4996512;28;20172;-70
2021/10/01 13:43:47;;;;;;;1.90;1.30;;;19.10;90.60;;;;;;4997885;28;20173;-69
2021/10/01 13:46:14;;;;;;;3.70;1.50;;;19.20;90.50;;;;;;4994389;28;20434;-70
2021/10/01 13:48:40;;;;;;;2.60;1.20;;;19.20;90.30;;;;;;4995647;28;20494;-69
2021/10/01 13:51:06;;;;;;;3.10;1.43;;;19.30;90.20;;;;;;4996272;28;20810;-69
2021/10/01 13:53:33;;;;;;;2.70;1.40;;;19.30;90.60;;;;;;4995307;28;20431;-70
2021/10/01 13:55:58;;;;;;;3.77;1.30;;;19.40;90.80;;;;;;4997196;28;20416;-69
2021/10/01 13:58:24;;;;;;;1.50;1.40;;;19.30;91.10;;;;;;4995417;28;20957;-70
2021/10/01 14:00:53;;;;;;;4.00;2.50;;;19.30;91.40;;;;;;4995609;28;20226;-71
2021/10/01 14:03:21;;;;;;;2.47;1.50;;;19.20;91.20;;;;;;4995562;28;20948;-70
2021/10/01 14:05:47;;;;;;;2.57;1.30;;;19.20;91.20;;;;;;4994874;28;20458;-69
2021/10/01 14:08:12;;;;;;;2.13;1.30;;;19.10;91.30;;;;;;4995703;28;20866;-70
2021/10/01 14:10:38;;;;;;;2.10;1.40;;;19.10;91.40;;;;;;4995689;28;20459;-69
2021/10/01 14:13:06;;;;;;;2.73;1.20;;;19.10;91.30;;;;;;4996395;28;20181;-69
2021/10/01 14:15:32;;;;;;;1.30;1.20;;;19.00;90.00;;;;;;4995353;28;20223;-69
2021/10/01 14:17:58;;;;;;;1.70;1.07;;;18.90;89.70;;;;;;4995714;28;20427;-68
2021/10/01 14:20:26;;;;;;;1.67;1.10;;;18.90;89.10;;;;;;4995944;28;20244;-70
2021/10/01 14:22:53;;;;;;;2.40;1.27;;;18.80;87.80;;;;;;4995869;28;20172;-70
2021/10/01 14:25:20;;;;;;;1.97;0.90;;;18.80;86.80;;;;;;4995968;28;20478;-70
2021/10/01 14:27:45;;;;;;;3.03;1.10;;;18.80;85.40;;;;;;4996367;28;20427;-70
2021/10/01 14:30:14;;;;;;;4.23;1.23;;;18.80;84.90;;;;;;4996821;28;20463;-70